sensor_id;sensor_type;location;lat;lon;timestamp;pressure;altitude;pressure_sealevel;temperature;humidity
9035;BME280;4552;43.422;24.592;2022-08-06T00:01:46;99525.03;;;23.84;58.22
9035;BME280;4552;43.422;24.592;2022-08-06T00:04:13;99525.50;;;23.78;58.50
9035;BME280;4552;43.422;24.592;2022-08-06T00:06:40;99515.03;;;23.75;58.81
9035;BME280;4552;43.422;24.592;2022-08-06T00:09:07;99531.94;;;23.76;58.28
9035;BME280;4552;43.422;24.592;2022-08-06T00:11:36;99529.06;;;23.66;58.90
9035;BME280;4552;43.422;24.592;2022-08-06T00:14:03;99525.38;;;23.56;59.83
9035;BME280;4552;43.422;24.592;2022-08-06T00:16:30;99528.38;;;23.52;60.15
9035;BME280;4552;43.422;24.592;2022-08-06T00:18:58;99527.25;;;23.67;59.27
9035;BME280;4552;43.422;24.592;2022-08-06T00:21:25;99522.63;;;23.45;59.82
9035;BME280;4552;43.422;24.592;2022-08-06T00:23:52;99515.84;;;23.29;61.08
9035;BME280;4552;43.422;24.592;2022-08-06T00:26:21;99523.06;;;23.39;60.58
9035;BME280;4552;43.422;24.592;2022-08-06T00:28:49;99522.97;;;23.41;60.72
9035;BME280;4552;43.422;24.592;2022-08-06T00:31:17;99521.16;;;23.16;61.86
9035;BME280;4552;43.422;24.592;2022-08-06T00:33:46;99522.25;;;23.26;61.87
9035;BME280;4552;43.422;24.592;2022-08-06T00:36:16;99521.41;;;23.26;61.49
9035;BME280;4552;43.422;24.592;2022-08-06T00:38:43;99520.09;;;23.19;61.57
9035;BME280;4552;43.422;24.592;2022-08-06T00:41:10;99529.81;;;23.32;61.41
9035;BME280;4552;43.422;24.592;2022-08-06T00:43:40;99530.13;;;23.40;60.90
9035;BME280;4552;43.422;24.592;2022-08-06T00:48:35;99523.72;;;23.18;61.89
9035;BME280;4552;43.422;24.592;2022-08-06T00:51:02;99519.69;;;23.12;62.66
9035;BME280;4552;43.422;24.592;2022-08-06T00:53:33;99522.44;;;23.36;61.67
9035;BME280;4552;43.422;24.592;2022-08-06T00:56:03;99534.19;;;23.21;62.10
9035;BME280;4552;43.422;24.592;2022-08-06T00:58:30;99511.16;;;22.95;62.78
9035;BME280;4552;43.422;24.592;2022-08-06T01:00:57;99528.66;;;23.11;62.82
9035;BME280;4552;43.422;24.592;2022-08-06T01:03:24;99523.97;;;23.02;62.88
9035;BME280;4552;43.422;24.592;2022-08-06T01:05:51;99538.50;;;22.98;63.18
9035;BME280;4552;43.422;24.592;2022-08-06T01:08:18;99536.22;;;23.05;62.90
9035;BME280;4552;43.422;24.592;2022-08-06T01:10:47;99534.53;;;22.91;63.60
9035;BME280;4552;43.422;24.592;2022-08-06T01:13:14;99513.28;;;22.77;63.90
9035;BME280;4552;43.422;24.592;2022-08-06T01:15:42;99532.94;;;23.01;63.43
9035;BME280;4552;43.422;24.592;2022-08-06T01:18:18;99527.41;;;22.79;63.89
9035;BME280;4552;43.422;24.592;2022-08-06T01:20:52;99537.44;;;22.63;65.31
9035;BME280;4552;43.422;24.592;2022-08-06T01:23:32;99534.84;;;22.49;65.33
9035;BME280;4552;43.422;24.592;2022-08-06T01:29:09;99537.03;;;22.69;65.02
9035;BME280;4552;43.422;24.592;2022-08-06T01:31:46;99526.34;;;22.69;64.50
9035;BME280;4552;43.422;24.592;2022-08-06T01:34:20;99537.88;;;22.57;64.71
9035;BME280;4552;43.422;24.592;2022-08-06T01:36:53;99535.66;;;22.37;65.88
9035;BME280;4552;43.422;24.592;2022-08-06T01:39:25;99542.69;;;22.38;65.88
9035;BME280;4552;43.422;24.592;2022-08-06T01:41:54;99525.84;;;22.25;66.20
9035;BME280;4552;43.422;24.592;2022-08-06T01:44:29;99526.50;;;22.41;65.53
9035;BME280;4552;43.422;24.592;2022-08-06T01:47:02;99534.19;;;22.46;65.69
9035;BME280;4552;43.422;24.592;2022-08-06T01:49:33;99516.16;;;22.49;65.56
9035;BME280;4552;43.422;24.592;2022-08-06T01:52:01;99526.28;;;22.44;65.59
9035;BME280;4552;43.422;24.592;2022-08-06T01:54:30;99521.03;;;22.17;66.46
9035;BME280;4552;43.422;24.592;2022-08-06T01:57:00;99516.22;;;22.22;66.55
9035;BME280;4552;43.422;24.592;2022-08-06T01:59:33;99522.00;;;22.29;66.38
9035;BME280;4552;43.422;24.592;2022-08-06T02:02:05;99526.47;;;22.28;66.34
9035;BME280;4552;43.422;24.592;2022-08-06T02:04:35;99532.13;;;22.37;65.92
9035;BME280;4552;43.422;24.592;2022-08-06T02:07:06;99523.47;;;22.33;65.53
9035;BME280;4552;43.422;24.592;2022-08-06T02:09:34;99530.66;;;22.45;65.37
9035;BME280;4552;43.422;24.592;2022-08-06T02:12:06;99517.56;;;22.67;64.62
9035;BME280;4552;43.422;24.592;2022-08-06T02:14:39;99527.59;;;22.76;64.53
9035;BME280;4552;43.422;24.592;2022-08-06T02:17:09;99523.34;;;22.61;64.79
9035;BME280;4552;43.422;24.592;2022-08-06T02:19:38;99514.75;;;22.44;64.62
9035;BME280;4552;43.422;24.592;2022-08-06T02:22:07;99514.28;;;22.12;66.73
9035;BME280;4552;43.422;24.592;2022-08-06T02:24:36;99510.19;;;21.94;67.52
9035;BME280;4552;43.422;24.592;2022-08-06T02:27:04;99516.19;;;22.10;67.48
9035;BME280;4552;43.422;24.592;2022-08-06T02:29:32;99496.97;;;21.92;67.35
9035;BME280;4552;43.422;24.592;2022-08-06T02:32:02;99520.94;;;22.19;67.00
9035;BME280;4552;43.422;24.592;2022-08-06T02:34:29;99523.06;;;22.27;66.59
9035;BME280;4552;43.422;24.592;2022-08-06T02:36:58;99518.16;;;22.33;65.98
9035;BME280;4552;43.422;24.592;2022-08-06T02:39:29;99527.56;;;22.39;66.17
9035;BME280;4552;43.422;24.592;2022-08-06T02:42:02;99513.97;;;22.56;65.06
9035;BME280;4552;43.422;24.592;2022-08-06T02:44:37;99522.06;;;22.54;65.43
9035;BME280;4552;43.422;24.592;2022-08-06T02:47:11;99536.25;;;22.55;65.91
9035;BME280;4552;43.422;24.592;2022-08-06T02:49:43;99522.41;;;22.23;66.94
9035;BME280;4552;43.422;24.592;2022-08-06T02:52:14;99530.13;;;22.01;68.33
9035;BME280;4552;43.422;24.592;2022-08-06T02:54:46;99523.91;;;21.88;68.62
9035;BME280;4552;43.422;24.592;2022-08-06T02:57:20;99516.31;;;21.82;69.04
9035;BME280;4552;43.422;24.592;2022-08-06T02:59:51;99522.06;;;21.76;69.83
9035;BME280;4552;43.422;24.592;2022-08-06T03:02:23;99527.00;;;21.82;69.93
9035;BME280;4552;43.422;24.592;2022-08-06T03:04:54;99527.88;;;21.95;69.50
9035;BME280;4552;43.422;24.592;2022-08-06T03:07:25;99501.38;;;21.79;69.60
9035;BME280;4552;43.422;24.592;2022-08-06T03:09:53;99504.88;;;22.06;68.42
9035;BME280;4552;43.422;24.592;2022-08-06T03:12:21;99525.72;;;21.87;69.72
9035;BME280;4552;43.422;24.592;2022-08-06T03:14:49;99535.13;;;21.93;70.18
9035;BME280;4552;43.422;24.592;2022-08-06T03:17:21;99522.16;;;21.74;70.16
9035;BME280;4552;43.422;24.592;2022-08-06T03:19:50;99532.53;;;21.79;70.58
9035;BME280;4552;43.422;24.592;2022-08-06T03:22:18;99538.53;;;21.95;70.14
9035;BME280;4552;43.422;24.592;2022-08-06T03:24:47;99532.69;;;21.90;70.68
9035;BME280;4552;43.422;24.592;2022-08-06T03:27:15;99538.53;;;21.95;70.94
9035;BME280;4552;43.422;24.592;2022-08-06T03:29:43;99524.06;;;21.99;70.13
9035;BME280;4552;43.422;24.592;2022-08-06T03:32:12;99542.25;;;22.19;69.67
9035;BME280;4552;43.422;24.592;2022-08-06T03:34:42;99545.25;;;22.27;69.06
9035;BME280;4552;43.422;24.592;2022-08-06T03:37:10;99532.66;;;22.29;68.76
9035;BME280;4552;43.422;24.592;2022-08-06T03:39:41;99538.25;;;22.39;68.56
9035;BME280;4552;43.422;24.592;2022-08-06T03:42:09;99555.91;;;22.54;68.57
9035;BME280;4552;43.422;24.592;2022-08-06T03:44:36;99552.81;;;22.72;67.95
9035;BME280;4552;43.422;24.592;2022-08-06T03:47:11;99540.63;;;22.68;67.59
9035;BME280;4552;43.422;24.592;2022-08-06T03:49:45;99548.84;;;22.65;67.90
9035;BME280;4552;43.422;24.592;2022-08-06T03:52:20;99554.41;;;22.62;68.33
9035;BME280;4552;43.422;24.592;2022-08-06T03:54:51;99551.06;;;22.46;69.19
9035;BME280;4552;43.422;24.592;2022-08-06T03:57:22;99547.03;;;22.53;68.80
9035;BME280;4552;43.422;24.592;2022-08-06T03:59:53;99546.28;;;22.64;68.96
9035;BME280;4552;43.422;24.592;2022-08-06T04:02:35;99533.81;;;22.64;68.23
9035;BME280;4552;43.422;24.592;2022-08-06T04:05:07;99545.75;;;22.71;67.97
9035;BME280;4552;43.422;24.592;2022-08-06T04:07:37;99541.28;;;22.97;67.35
9035;BME280;4552;43.422;24.592;2022-08-06T04:10:06;99548.31;;;23.10;65.98
9035;BME280;4552;43.422;24.592;2022-08-06T04:12:33;99551.09;;;23.09;65.56
9035;BME280;4552;43.422;24.592;2022-08-06T04:15:04;99561.66;;;23.10;65.36
9035;BME280;4552;43.422;24.592;2022-08-06T04:17:33;99563.97;;;23.52;63.28
9035;BME280;4552;43.422;24.592;2022-08-06T04:20:03;99572.75;;;23.42;63.13
9035;BME280;4552;43.422;24.592;2022-08-06T04:22:32;99566.38;;;23.32;62.76
9035;BME280;4552;43.422;24.592;2022-08-06T04:24:59;99579.38;;;23.49;62.04
9035;BME280;4552;43.422;24.592;2022-08-06T04:27:27;99576.63;;;23.38;62.84
9035;BME280;4552;43.422;24.592;2022-08-06T04:29:56;99581.44;;;23.33;63.31
9035;BME280;4552;43.422;24.592;2022-08-06T04:32:26;99565.84;;;23.27;64.26
9035;BME280;4552;43.422;24.592;2022-08-06T04:34:54;99579.19;;;23.39;64.46
9035;BME280;4552;43.422;24.592;2022-08-06T04:37:22;99579.19;;;23.39;65.92
9035;BME280;4552;43.422;24.592;2022-08-06T04:39:51;99572.69;;;23.18;66.78
9035;BME280;4552;43.422;24.592;2022-08-06T04:42:19;99558.69;;;23.27;66.44
9035;BME280;4552;43.422;24.592;2022-08-06T04:44:46;99569.88;;;23.32;67.22
9035;BME280;4552;43.422;24.592;2022-08-06T04:47:14;99579.50;;;23.47;67.21
9035;BME280;4552;43.422;24.592;2022-08-06T04:49:42;99584.09;;;23.45;66.81
9035;BME280;4552;43.422;24.592;2022-08-06T04:52:20;99574.06;;;23.72;65.75
9035;BME280;4552;43.422;24.592;2022-08-06T04:54:47;99584.16;;;23.92;65.28
9035;BME280;4552;43.422;24.592;2022-08-06T04:57:16;99581.56;;;24.04;65.04
9035;BME280;4552;43.422;24.592;2022-08-06T04:59:43;99594.59;;;24.32;63.03
9035;BME280;4552;43.422;24.592;2022-08-06T05:02:10;99588.63;;;24.63;62.36
9035;BME280;4552;43.422;24.592;2022-08-06T05:04:38;99599.78;;;24.91;60.30
9035;BME280;4552;43.422;24.592;2022-08-06T05:07:12;99592.66;;;25.03;57.32
9035;BME280;4552;43.422;24.592;2022-08-06T05:09:40;99596.03;;;24.94;59.24
9035;BME280;4552;43.422;24.592;2022-08-06T05:12:21;99595.53;;;24.89;58.58
9035;BME280;4552;43.422;24.592;2022-08-06T05:14:54;99599.47;;;25.18;58.00
9035;BME280;4552;43.422;24.592;2022-08-06T05:17:23;99599.75;;;25.59;56.29
9035;BME280;4552;43.422;24.592;2022-08-06T05:19:55;99598.75;;;25.71;55.71
9035;BME280;4552;43.422;24.592;2022-08-06T05:22:30;99593.63;;;26.01;55.19
9035;BME280;4552;43.422;24.592;2022-08-06T05:24:58;99596.50;;;26.09;54.69
9035;BME280;4552;43.422;24.592;2022-08-06T05:27:27;99577.34;;;25.38;56.06
9035;BME280;4552;43.422;24.592;2022-08-06T05:29:55;99603.38;;;25.25;57.12
9035;BME280;4552;43.422;24.592;2022-08-06T05:32:22;99605.31;;;25.12;57.41
9035;BME280;4552;43.422;24.592;2022-08-06T05:34:50;99612.38;;;25.13;57.25
9035;BME280;4552;43.422;24.592;2022-08-06T05:37:17;99619.72;;;25.66;55.95
9035;BME280;4552;43.422;24.592;2022-08-06T05:39:44;99612.88;;;25.84;54.06
9035;BME280;4552;43.422;24.592;2022-08-06T05:42:11;99618.84;;;25.88;54.48
9035;BME280;4552;43.422;24.592;2022-08-06T05:44:39;99615.56;;;25.84;54.83
9035;BME280;4552;43.422;24.592;2022-08-06T05:47:13;99620.19;;;25.93;54.27
9035;BME280;4552;43.422;24.592;2022-08-06T05:49:45;99638.50;;;25.99;54.27
9035;BME280;4552;43.422;24.592;2022-08-06T05:52:17;99625.56;;;25.60;55.51
9035;BME280;4552;43.422;24.592;2022-08-06T05:54:49;99635.59;;;25.47;56.17
9035;BME280;4552;43.422;24.592;2022-08-06T05:57:24;99617.06;;;25.55;55.33
9035;BME280;4552;43.422;24.592;2022-08-06T05:59:59;99625.81;;;25.68;54.40
9035;BME280;4552;43.422;24.592;2022-08-06T06:02:28;99625.06;;;25.88;54.67
9035;BME280;4552;43.422;24.592;2022-08-06T06:04:58;99625.84;;;26.64;53.03
9035;BME280;4552;43.422;24.592;2022-08-06T06:07:26;99632.44;;;27.13;50.86
9035;BME280;4552;43.422;24.592;2022-08-06T06:09:55;99623.50;;;27.12;49.55
9035;BME280;4552;43.422;24.592;2022-08-06T06:12:25;99620.69;;;26.93;50.10
9035;BME280;4552;43.422;24.592;2022-08-06T06:14:54;99623.75;;;26.88;49.92
9035;BME280;4552;43.422;24.592;2022-08-06T06:17:41;99638.09;;;26.78;49.50
9035;BME280;4552;43.422;24.592;2022-08-06T06:20:15;99620.22;;;27.08;49.46
9035;BME280;4552;43.422;24.592;2022-08-06T06:22:49;99630.09;;;27.49;48.38
9035;BME280;4552;43.422;24.592;2022-08-06T06:25:23;99625.56;;;27.80;47.22
9035;BME280;4552;43.422;24.592;2022-08-06T06:27:56;99629.72;;;27.93;46.68
9035;BME280;4552;43.422;24.592;2022-08-06T06:30:46;99634.03;;;28.15;45.97
9035;BME280;4552;43.422;24.592;2022-08-06T06:33:22;99642.75;;;28.95;43.98
9035;BME280;4552;43.422;24.592;2022-08-06T06:35:53;99635.63;;;29.68;42.43
9035;BME280;4552;43.422;24.592;2022-08-06T06:38:28;99634.13;;;29.83;41.58
9035;BME280;4552;43.422;24.592;2022-08-06T06:41:03;99634.41;;;29.80;41.33
9035;BME280;4552;43.422;24.592;2022-08-06T06:43:37;99635.63;;;29.68;41.73
9035;BME280;4552;43.422;24.592;2022-08-06T06:46:12;99631.81;;;29.06;43.09
9035;BME280;4552;43.422;24.592;2022-08-06T06:48:44;99641.28;;;29.19;42.60
9035;BME280;4552;43.422;24.592;2022-08-06T06:51:16;99624.16;;;28.63;43.55
9035;BME280;4552;43.422;24.592;2022-08-06T06:53:50;99632.69;;;28.68;44.43
9035;BME280;4552;43.422;24.592;2022-08-06T06:56:20;99634.41;;;29.44;42.67
9035;BME280;4552;43.422;24.592;2022-08-06T06:58:51;99643.94;;;29.38;42.39
9035;BME280;4552;43.422;24.592;2022-08-06T07:01:21;99635.34;;;29.25;42.51
9035;BME280;4552;43.422;24.592;2022-08-06T07:03:49;99640.50;;;29.46;42.75
9035;BME280;4552;43.422;24.592;2022-08-06T07:06:16;99635.50;;;29.97;41.62
9035;BME280;4552;43.422;24.592;2022-08-06T07:08:46;99634.41;;;29.80;41.75
9035;BME280;4552;43.422;24.592;2022-08-06T07:11:19;99637.78;;;29.09;42.59
9035;BME280;4552;43.422;24.592;2022-08-06T07:13:48;99628.56;;;28.83;43.42
9035;BME280;4552;43.422;24.592;2022-08-06T07:16:18;99634.34;;;29.17;43.09
9035;BME280;4552;43.422;24.592;2022-08-06T07:18:49;99635.38;;;29.52;42.77
9035;BME280;4552;43.422;24.592;2022-08-06T07:21:19;99640.78;;;29.52;42.33
9035;BME280;4552;43.422;24.592;2022-08-06T07:23:49;99629.88;;;29.81;40.99
9035;BME280;4552;43.422;24.592;2022-08-06T07:26:20;99636.81;;;30.38;40.09
9035;BME280;4552;43.422;24.592;2022-08-06T07:28:48;99644.03;;;30.82;40.04
9035;BME280;4552;43.422;24.592;2022-08-06T07:31:16;99638.00;;;31.31;38.32
9035;BME280;4552;43.422;24.592;2022-08-06T07:33:47;99645.59;;;31.53;38.53
9035;BME280;4552;43.422;24.592;2022-08-06T07:36:16;99642.53;;;31.48;37.68
9035;BME280;4552;43.422;24.592;2022-08-06T07:38:45;99636.97;;;31.06;38.53
9035;BME280;4552;43.422;24.592;2022-08-06T07:41:13;99638.22;;;31.37;37.81
9035;BME280;4552;43.422;24.592;2022-08-06T07:43:43;99637.69;;;31.34;37.67
9035;BME280;4552;43.422;24.592;2022-08-06T07:46:15;99624.03;;;31.18;39.29
9035;BME280;4552;43.422;24.592;2022-08-06T07:48:52;99641.63;;;31.22;38.69
9035;BME280;4552;43.422;24.592;2022-08-06T07:51:22;99629.91;;;31.31;38.22
9035;BME280;4552;43.422;24.592;2022-08-06T07:53:51;99631.47;;;31.41;39.45
9035;BME280;4552;43.422;24.592;2022-08-06T07:56:19;99632.88;;;31.79;38.03
9035;BME280;4552;43.422;24.592;2022-08-06T07:58:46;99626.91;;;31.42;38.30
9035;BME280;4552;43.422;24.592;2022-08-06T08:01:13;99632.34;;;31.75;37.79
9035;BME280;4552;43.422;24.592;2022-08-06T08:03:43;99636.03;;;32.00;36.97
9035;BME280;4552;43.422;24.592;2022-08-06T08:06:30;99641.84;;;32.21;37.07
9035;BME280;4552;43.422;24.592;2022-08-06T08:08:59;99621.53;;;32.25;37.31
9035;BME280;4552;43.422;24.592;2022-08-06T08:11:27;99630.81;;;32.15;36.59
9035;BME280;4552;43.422;24.592;2022-08-06T08:13:55;99634.47;;;31.90;37.21
9035;BME280;4552;43.422;24.592;2022-08-06T08:16:25;99624.88;;;32.03;37.27
9035;BME280;4552;43.422;24.592;2022-08-06T08:18:52;99625.09;;;32.26;38.33
9035;BME280;4552;43.422;24.592;2022-08-06T08:21:21;99622.31;;;32.43;37.09
9035;BME280;4552;43.422;24.592;2022-08-06T08:23:51;99616.78;;;32.19;37.54
9035;BME280;4552;43.422;24.592;2022-08-06T08:26:18;99618.94;;;32.73;37.26
9035;BME280;4552;43.422;24.592;2022-08-06T08:28:45;99605.38;;;32.73;36.51
9035;BME280;4552;43.422;24.592;2022-08-06T08:31:12;99616.88;;;32.51;35.95
9035;BME280;4552;43.422;24.592;2022-08-06T08:33:40;99612.47;;;32.74;37.13
9035;BME280;4552;43.422;24.592;2022-08-06T08:36:07;99601.94;;;32.39;36.92
9035;BME280;4552;43.422;24.592;2022-08-06T08:38:35;99597.91;;;32.59;36.67
9035;BME280;4552;43.422;24.592;2022-08-06T08:41:09;99606.03;;;32.83;36.18
9035;BME280;4552;43.422;24.592;2022-08-06T08:43:43;99609.28;;;32.63;36.42
9035;BME280;4552;43.422;24.592;2022-08-06T08:46:11;99603.19;;;32.93;36.77
9035;BME280;4552;43.422;24.592;2022-08-06T08:48:40;99601.28;;;33.01;36.64
9035;BME280;4552;43.422;24.592;2022-08-06T08:51:08;99596.03;;;33.00;35.65
9035;BME280;4552;43.422;24.592;2022-08-06T08:53:44;99606.72;;;32.61;35.64
9035;BME280;4552;43.422;24.592;2022-08-06T08:56:13;99602.97;;;32.54;35.85
9035;BME280;4552;43.422;24.592;2022-08-06T08:58:41;99595.03;;;32.93;35.64
9035;BME280;4552;43.422;24.592;2022-08-06T09:01:08;99604.66;;;32.63;36.23
9035;BME280;4552;43.422;24.592;2022-08-06T09:03:37;99600.13;;;32.72;35.64
9035;BME280;4552;43.422;24.592;2022-08-06T09:06:05;99603.66;;;32.72;35.59
9035;BME280;4552;43.422;24.592;2022-08-06T09:08:33;99595.88;;;32.77;35.00
9035;BME280;4552;43.422;24.592;2022-08-06T09:11:02;99587.06;;;33.07;35.38
9035;BME280;4552;43.422;24.592;2022-08-06T09:13:31;99573.34;;;33.01;35.34
9035;BME280;4552;43.422;24.592;2022-08-06T09:15:58;99584.84;;;33.03;34.71
9035;BME280;4552;43.422;24.592;2022-08-06T09:18:25;99589.06;;;32.57;35.70
9035;BME280;4552;43.422;24.592;2022-08-06T09:20:52;99575.38;;;32.75;35.46
9035;BME280;4552;43.422;24.592;2022-08-06T09:23:20;99575.84;;;32.86;35.39
9035;BME280;4552;43.422;24.592;2022-08-06T09:25:48;99579.94;;;33.06;34.53
9035;BME280;4552;43.422;24.592;2022-08-06T09:28:36;99567.06;;;32.92;35.28
9035;BME280;4552;43.422;24.592;2022-08-06T09:31:05;99570.09;;;33.13;34.99
9035;BME280;4552;43.422;24.592;2022-08-06T09:33:37;99567.31;;;33.37;34.47
9035;BME280;4552;43.422;24.592;2022-08-06T09:36:06;99570.66;;;33.64;33.85
9035;BME280;4552;43.422;24.592;2022-08-06T09:38:48;99572.34;;;34.03;33.49
9035;BME280;4552;43.422;24.592;2022-08-06T09:41:17;99568.91;;;34.32;32.91
9035;BME280;4552;43.422;24.592;2022-08-06T09:43:49;99573.06;;;33.51;33.13
9035;BME280;4552;43.422;24.592;2022-08-06T09:46:18;99566.34;;;33.14;33.62
9035;BME280;4552;43.422;24.592;2022-08-06T09:49:02;99583.94;;;33.34;33.29
9035;BME280;4552;43.422;24.592;2022-08-06T09:51:29;99576.34;;;33.22;33.26
9035;BME280;4552;43.422;24.592;2022-08-06T09:54:00;99578.03;;;33.39;33.02
9035;BME280;4552;43.422;24.592;2022-08-06T09:56:28;99571.28;;;33.11;33.42
9035;BME280;4552;43.422;24.592;2022-08-06T09:58:59;99573.94;;;33.43;33.34
9035;BME280;4552;43.422;24.592;2022-08-06T10:01:27;99574.84;;;33.19;33.01
9035;BME280;4552;43.422;24.592;2022-08-06T10:03:57;99562.94;;;33.28;32.71
9035;BME280;4552;43.422;24.592;2022-08-06T10:06:24;99572.06;;;33.27;32.88
9035;BME280;4552;43.422;24.592;2022-08-06T10:09:05;99556.13;;;33.32;33.02
9035;BME280;4552;43.422;24.592;2022-08-06T10:11:34;99564.25;;;33.32;32.63
9035;BME280;4552;43.422;24.592;2022-08-06T10:14:02;99546.81;;;33.27;33.17
9035;BME280;4552;43.422;24.592;2022-08-06T10:16:29;99545.16;;;33.65;32.50
9035;BME280;4552;43.422;24.592;2022-08-06T10:18:57;99546.84;;;34.27;32.40
9035;BME280;4552;43.422;24.592;2022-08-06T10:21:29;99542.88;;;34.15;32.35
9035;BME280;4552;43.422;24.592;2022-08-06T10:24:02;99541.69;;;34.17;32.23
9035;BME280;4552;43.422;24.592;2022-08-06T10:26:30;99553.72;;;34.45;32.17
9035;BME280;4552;43.422;24.592;2022-08-06T10:29:03;99542.75;;;34.39;32.24
9035;BME280;4552;43.422;24.592;2022-08-06T10:31:32;99545.06;;;34.87;31.03
9035;BME280;4552;43.422;24.592;2022-08-06T10:34:11;99533.56;;;34.40;31.59
9035;BME280;4552;43.422;24.592;2022-08-06T10:36:43;99538.25;;;34.46;31.18
9035;BME280;4552;43.422;24.592;2022-08-06T10:39:14;99542.28;;;34.05;32.08
9035;BME280;4552;43.422;24.592;2022-08-06T10:41:43;99527.63;;;34.06;32.05
9035;BME280;4552;43.422;24.592;2022-08-06T10:44:14;99529.09;;;33.94;31.91
9035;BME280;4552;43.422;24.592;2022-08-06T10:46:45;99517.66;;;33.98;31.54
9035;BME280;4552;43.422;24.592;2022-08-06T10:49:13;99542.75;;;34.39;32.12
9035;BME280;4552;43.422;24.592;2022-08-06T10:51:41;99527.38;;;34.23;31.29
9035;BME280;4552;43.422;24.592;2022-08-06T10:54:09;99530.41;;;33.98;31.33
9035;BME280;4552;43.422;24.592;2022-08-06T10:56:37;99527.41;;;33.85;31.95
9035;BME280;4552;43.422;24.592;2022-08-06T10:59:06;99522.03;;;33.69;32.48
9035;BME280;4552;43.422;24.592;2022-08-06T11:01:38;99530.94;;;33.93;32.45
9035;BME280;4552;43.422;24.592;2022-08-06T11:04:23;99537.00;;;34.03;31.70
9035;BME280;4552;43.422;24.592;2022-08-06T11:07:11;99524.50;;;34.17;32.71
9035;BME280;4552;43.422;24.592;2022-08-06T11:10:07;99526.06;;;34.42;31.91
9035;BME280;4552;43.422;24.592;2022-08-06T11:12:48;99523.97;;;34.44;31.97
9035;BME280;4552;43.422;24.592;2022-08-06T11:15:17;99518.44;;;34.60;31.25
9035;BME280;4552;43.422;24.592;2022-08-06T11:17:49;99504.88;;;34.52;31.59
9035;BME280;4552;43.422;24.592;2022-08-06T11:20:37;99513.03;;;33.76;31.84
9035;BME280;4552;43.422;24.592;2022-08-06T11:23:25;99516.50;;;33.62;31.95
9035;BME280;4552;43.422;24.592;2022-08-06T11:25:54;99506.75;;;34.29;30.83
9035;BME280;4552;43.422;24.592;2022-08-06T11:31:36;99512.91;;;34.23;31.28
9035;BME280;4552;43.422;24.592;2022-08-06T11:34:08;99511.50;;;34.27;31.35
9035;BME280;4552;43.422;24.592;2022-08-06T11:36:53;99509.84;;;34.26;31.36
9035;BME280;4552;43.422;24.592;2022-08-06T11:39:23;99508.06;;;34.33;31.42
9035;BME280;4552;43.422;24.592;2022-08-06T11:41:55;99510.94;;;34.39;31.09
9035;BME280;4552;43.422;24.592;2022-08-06T11:44:24;99491.47;;;34.28;31.36
9035;BME280;4552;43.422;24.592;2022-08-06T11:47:13;99507.72;;;34.13;31.58
9035;BME280;4552;43.422;24.592;2022-08-06T11:49:44;99502.22;;;34.44;31.79
9035;BME280;4552;43.422;24.592;2022-08-06T11:52:40;99507.50;;;34.45;31.19
9035;BME280;4552;43.422;24.592;2022-08-06T11:55:09;99505.13;;;34.20;31.78
9035;BME280;4552;43.422;24.592;2022-08-06T11:57:36;99506.06;;;34.27;31.28
9035;BME280;4552;43.422;24.592;2022-08-06T12:00:12;99494.44;;;33.88;31.96
9035;BME280;4552;43.422;24.592;2022-08-06T12:03:04;99492.06;;;33.93;32.44
9035;BME280;4552;43.422;24.592;2022-08-06T12:05:40;99500.28;;;34.07;32.01
9035;BME280;4552;43.422;24.592;2022-08-06T12:11:21;99483.16;;;34.07;31.08
9035;BME280;4552;43.422;24.592;2022-08-06T12:13:49;99481.69;;;34.41;31.29
9035;BME280;4552;43.422;24.592;2022-08-06T12:16:27;99484.72;;;34.98;30.73
9035;BME280;4552;43.422;24.592;2022-08-06T12:18:55;99492.50;;;35.16;30.16
9035;BME280;4552;43.422;24.592;2022-08-06T12:21:28;99459.94;;;35.22;30.31
9035;BME280;4552;43.422;24.592;2022-08-06T12:23:56;99460.31;;;35.48;29.35
9035;BME280;4552;43.422;24.592;2022-08-06T12:26:23;99458.53;;;35.12;29.48
9035;BME280;4552;43.422;24.592;2022-08-06T12:29:00;99471.69;;;35.23;29.52
9035;BME280;4552;43.422;24.592;2022-08-06T12:31:29;99474.31;;;35.16;30.05
9035;BME280;4552;43.422;24.592;2022-08-06T12:33:56;99466.59;;;35.05;29.59
9035;BME280;4552;43.422;24.592;2022-08-06T12:36:29;99464.75;;;35.06;30.07
9035;BME280;4552;43.422;24.592;2022-08-06T12:38:57;99463.94;;;34.82;29.91
9035;BME280;4552;43.422;24.592;2022-08-06T12:41:33;99465.66;;;35.27;29.88
9035;BME280;4552;43.422;24.592;2022-08-06T12:44:00;99459.16;;;34.84;29.72
9035;BME280;4552;43.422;24.592;2022-08-06T12:46:28;99453.41;;;34.65;29.52
9035;BME280;4552;43.422;24.592;2022-08-06T12:48:55;99453.81;;;34.76;29.69
9035;BME280;4552;43.422;24.592;2022-08-06T12:51:22;99460.25;;;34.61;30.14
9035;BME280;4552;43.422;24.592;2022-08-06T12:53:52;99457.91;;;34.58;30.33
9035;BME280;4552;43.422;24.592;2022-08-06T12:56:22;99460.81;;;34.42;30.22
9035;BME280;4552;43.422;24.592;2022-08-06T12:58:51;99460.53;;;34.29;30.12
9035;BME280;4552;43.422;24.592;2022-08-06T13:01:21;99453.00;;;33.94;31.36
9035;BME280;4552;43.422;24.592;2022-08-06T13:03:50;99458.16;;;33.81;32.75
9035;BME280;4552;43.422;24.592;2022-08-06T13:06:20;99459.53;;;33.77;32.55
9035;BME280;4552;43.422;24.592;2022-08-06T13:08:52;99463.28;;;33.76;32.81
9035;BME280;4552;43.422;24.592;2022-08-06T13:11:20;99464.00;;;33.70;33.83
9035;BME280;4552;43.422;24.592;2022-08-06T13:13:50;99458.06;;;33.97;33.89
9035;BME280;4552;43.422;24.592;2022-08-06T13:16:18;99450.19;;;33.79;33.83
9035;BME280;4552;43.422;24.592;2022-08-06T13:19:04;99438.84;;;33.76;33.64
9035;BME280;4552;43.422;24.592;2022-08-06T13:21:31;99454.84;;;33.93;33.64
9035;BME280;4552;43.422;24.592;2022-08-06T13:24:03;99451.16;;;34.31;32.87
9035;BME280;4552;43.422;24.592;2022-08-06T13:26:32;99436.50;;;34.18;32.86
9035;BME280;4552;43.422;24.592;2022-08-06T13:29:09;99447.00;;;34.21;32.37
9035;BME280;4552;43.422;24.592;2022-08-06T13:31:38;99450.81;;;34.12;32.29
9035;BME280;4552;43.422;24.592;2022-08-06T13:34:07;99447.38;;;34.40;32.46
9035;BME280;4552;43.422;24.592;2022-08-06T13:36:38;99457.25;;;34.56;32.17
9035;BME280;4552;43.422;24.592;2022-08-06T13:39:24;99450.88;;;34.49;31.96
9035;BME280;4552;43.422;24.592;2022-08-06T13:42:03;99455.75;;;34.53;32.19